createdAt,value
2022-08-27T00:01:22.147Z,10.32
2022-08-27T00:03:56.004Z,13.25
2022-08-27T00:06:25.632Z,11.85
2022-08-27T00:08:55.273Z,11.80
2022-08-27T00:11:25.484Z,10.00
2022-08-27T00:13:56.602Z,13.60
2022-08-27T00:16:26.130Z,10.75
2022-08-27T00:19:00.026Z,11.52
2022-08-27T00:21:29.517Z,12.80
2022-08-27T00:23:58.952Z,11.52
2022-08-27T00:26:28.445Z,11.40
2022-08-27T00:28:57.890Z,12.32
2022-08-27T00:31:27.842Z,12.13
2022-08-27T00:34:00.585Z,12.00
2022-08-27T00:36:30.203Z,13.75
2022-08-27T00:38:59.773Z,11.80
2022-08-27T00:41:29.221Z,12.10
2022-08-27T00:44:00.129Z,12.48
2022-08-27T00:49:05.605Z,13.23
2022-08-27T00:51:35.152Z,12.45
2022-08-27T00:54:04.703Z,12.60
2022-08-27T00:56:36.296Z,12.93
2022-08-27T00:59:06.311Z,12.18
2022-08-27T01:01:56.531Z,12.43
2022-08-27T01:04:28.600Z,11.77
2022-08-27T01:06:58.120Z,12.18
2022-08-27T01:09:27.556Z,12.70
2022-08-27T01:11:57.014Z,13.48
2022-08-27T01:14:27.045Z,12.98
2022-08-27T01:16:58.497Z,10.93
2022-08-27T01:19:32.244Z,14.63
2022-08-27T01:22:05.028Z,13.50
2022-08-27T01:24:38.424Z,13.73
2022-08-27T01:27:13.807Z,14.68
2022-08-27T01:29:43.514Z,12.60
2022-08-27T01:32:16.193Z,13.50
2022-08-27T01:34:46.023Z,13.45
2022-08-27T01:37:15.654Z,13.27
2022-08-27T01:39:47.828Z,17.27
2022-08-27T01:42:19.379Z,14.23
2022-08-27T01:44:50.901Z,14.88
2022-08-27T01:47:21.056Z,14.05
2022-08-27T01:49:50.557Z,14.68
2022-08-27T01:52:22.363Z,12.88
2022-08-27T01:54:54.448Z,12.07
2022-08-27T01:57:26.057Z,10.30
2022-08-27T01:59:56.993Z,13.13
2022-08-27T02:02:26.771Z,12.98
2022-08-27T02:04:56.304Z,12.88
2022-08-27T02:07:25.826Z,14.23
2022-08-27T02:09:57.865Z,14.30
2022-08-27T02:12:27.331Z,12.95
2022-08-27T02:14:56.764Z,14.18
2022-08-27T02:17:26.222Z,15.70
2022-08-27T02:19:56.788Z,13.90
2022-08-27T02:22:26.878Z,16.02
2022-08-27T02:24:58.911Z,19.08
2022-08-27T02:27:28.371Z,15.85
2022-08-27T02:29:58.112Z,16.17
2022-08-27T02:32:31.837Z,14.60
2022-08-27T02:35:01.801Z,17.92
2022-08-27T02:37:31.359Z,15.95
2022-08-27T02:40:04.091Z,18.33
2022-08-27T02:42:33.562Z,16.75
2022-08-27T02:45:03.036Z,14.52
2022-08-27T02:47:32.492Z,17.90
2022-08-27T02:50:02.061Z,15.60
2022-08-27T02:52:32.242Z,17.02
2022-08-27T02:55:04.272Z,15.82
2022-08-27T02:57:36.601Z,17.67
2022-08-27T03:00:07.597Z,15.23
2022-08-27T03:02:37.273Z,18.27
2022-08-27T03:05:08.092Z,16.35
2022-08-27T03:07:37.573Z,16.00
2022-08-27T03:10:10.065Z,16.55
2022-08-27T03:12:39.557Z,14.60
2022-08-27T03:15:10.568Z,16.52
2022-08-27T03:17:52.565Z,17.33
2022-08-27T03:20:22.815Z,14.38
2022-08-27T03:22:53.082Z,15.00
2022-08-27T03:25:25.295Z,21.40
2022-08-27T03:27:54.997Z,17.63
2022-08-27T03:30:25.333Z,15.27
2022-08-27T03:32:54.961Z,18.55
2022-08-27T03:35:24.848Z,16.35
2022-08-27T03:37:54.387Z,16.27
2022-08-27T03:40:26.451Z,18.60
2022-08-27T03:42:55.936Z,14.35
2022-08-27T03:45:27.261Z,18.25
2022-08-27T03:47:56.859Z,17.27
2022-08-27T03:50:26.308Z,17.10
2022-08-27T03:52:56.027Z,19.40
2022-08-27T03:55:28.153Z,23.60
2022-08-27T03:57:57.869Z,17.17
2022-08-27T04:00:27.381Z,17.73
2022-08-27T04:02:57.515Z,19.67
2022-08-27T04:05:27.029Z,20.35
2022-08-27T04:07:56.508Z,19.05
2022-08-27T04:10:32.800Z,20.70
2022-08-27T04:13:04.336Z,20.92
2022-08-27T04:15:33.778Z,18.70
2022-08-27T04:18:03.470Z,20.30
2022-08-27T04:20:35.375Z,19.67
2022-08-27T04:23:05.364Z,21.63
2022-08-27T04:25:37.408Z,20.83
2022-08-27T04:28:07.394Z,18.25
2022-08-27T04:30:36.859Z,19.85
2022-08-27T04:33:06.316Z,23.13
2022-08-27T04:35:35.777Z,21.25
2022-08-27T04:38:05.664Z,21.67
2022-08-27T04:40:51.376Z,20.20
2022-08-27T04:43:22.747Z,21.50
2022-08-27T04:45:52.417Z,19.45
2022-08-27T04:48:22.097Z,23.80
2022-08-27T04:50:51.540Z,23.42
2022-08-27T04:53:21.374Z,21.48
2022-08-27T04:55:55.217Z,17.95
2022-08-27T04:58:25.079Z,17.67
2022-08-27T05:00:55.399Z,20.45
2022-08-27T05:03:26.261Z,18.75
2022-08-27T05:05:56.617Z,21.77
2022-08-27T05:08:26.093Z,21.58
2022-08-27T05:11:00.497Z,17.95
2022-08-27T05:13:30.355Z,19.38
2022-08-27T05:16:03.717Z,21.73
2022-08-27T05:18:37.978Z,18.63
2022-08-27T05:21:19.241Z,18.65
2022-08-27T05:23:48.891Z,19.45
2022-08-27T05:26:21.157Z,18.70
2022-08-27T05:28:50.905Z,18.67
2022-08-27T05:31:20.879Z,17.70
2022-08-27T05:33:50.419Z,20.90
2022-08-27T05:36:21.164Z,18.88
2022-08-27T05:38:51.769Z,20.92
2022-08-27T05:41:25.551Z,18.58
2022-08-27T05:44:10.557Z,16.35
2022-08-27T05:46:48.305Z,15.25
2022-08-27T05:49:18.497Z,18.20
2022-08-27T05:51:48.876Z,16.40
2022-08-27T05:54:19.743Z,16.55
2022-08-27T05:56:52.184Z,17.42
2022-08-27T05:59:34.749Z,16.55
2022-08-27T06:02:05.960Z,15.75
2022-08-27T06:07:04.742Z,17.10
2022-08-27T06:09:34.193Z,16.17
2022-08-27T06:12:06.528Z,17.02
2022-08-27T06:14:36.100Z,16.60
2022-08-27T06:17:06.367Z,16.02
2022-08-27T06:19:36.713Z,17.77
2022-08-27T06:22:09.806Z,15.30
2022-08-27T06:24:41.188Z,16.65
2022-08-27T06:27:16.176Z,15.82
2022-08-27T06:29:46.127Z,16.35
2022-08-27T06:32:15.825Z,17.02
2022-08-27T06:34:45.262Z,15.80
2022-08-27T06:37:14.696Z,16.15
2022-08-27T06:39:44.228Z,17.90
2022-08-27T06:42:16.266Z,15.90
2022-08-27T06:44:45.912Z,14.27
2022-08-27T06:47:15.361Z,13.88
2022-08-27T06:49:46.368Z,15.13
2022-08-27T06:52:16.197Z,15.43
2022-08-27T06:54:45.871Z,15.63
2022-08-27T06:57:17.901Z,14.23
2022-08-27T06:59:47.848Z,13.52
2022-08-27T07:02:17.492Z,13.50
2022-08-27T07:04:47.492Z,13.07
2022-08-27T07:07:36.471Z,13.85
2022-08-27T07:10:07.597Z,15.65
2022-08-27T07:12:39.626Z,12.65
2022-08-27T07:15:10.185Z,13.77
2022-08-27T07:17:41.112Z,12.68
2022-08-27T07:20:11.526Z,14.20
2022-08-27T07:22:41.930Z,12.27
2022-08-27T07:25:13.037Z,13.75
2022-08-27T07:27:45.052Z,11.82
2022-08-27T07:30:15.833Z,14.88
2022-08-27T07:32:45.349Z,12.23
2022-08-27T07:35:15.004Z,11.32
2022-08-27T07:37:44.673Z,12.73
2022-08-27T07:40:15.823Z,15.25
2022-08-27T07:43:00.381Z,10.82
2022-08-27T07:45:30.201Z,13.10
2022-08-27T07:47:59.845Z,12.70
2022-08-27T07:50:29.523Z,11.65
2022-08-27T07:52:59.177Z,13.10
2022-08-27T07:55:28.971Z,14.68
2022-08-27T07:58:00.984Z,12.32
2022-08-27T08:00:30.706Z,13.27
2022-08-27T08:03:00.207Z,15.75
2022-08-27T08:05:29.932Z,13.48
2022-08-27T08:07:59.371Z,13.85
2022-08-27T08:10:32.353Z,14.18
2022-08-27T08:13:07.086Z,13.25
2022-08-27T08:15:37.854Z,14.65
2022-08-27T08:18:07.480Z,12.93
2022-08-27T08:20:57.105Z,13.77
2022-08-27T08:23:26.453Z,13.63
2022-08-27T08:25:55.918Z,14.20
2022-08-27T08:28:29.147Z,12.90
2022-08-27T08:30:58.878Z,12.00
2022-08-27T08:33:28.618Z,12.90
2022-08-27T08:35:58.332Z,13.75
2022-08-27T08:38:28.285Z,11.48
2022-08-27T08:40:57.757Z,11.52
2022-08-27T08:43:33.326Z,12.05
2022-08-27T08:46:07.943Z,11.05
2022-08-27T08:48:37.486Z,13.07
2022-08-27T08:51:10.080Z,12.27
2022-08-27T08:53:43.490Z,13.65
2022-08-27T08:56:14.834Z,13.80
2022-08-27T08:58:48.670Z,11.98
2022-08-27T09:01:20.641Z,11.43
2022-08-27T09:03:54.672Z,13.35
2022-08-27T09:06:31.950Z,10.65
2022-08-27T09:09:04.125Z,12.18
2022-08-27T09:11:38.012Z,13.35
2022-08-27T09:14:13.438Z,12.15
2022-08-27T09:16:43.306Z,10.93
2022-08-27T09:19:13.732Z,12.50
2022-08-27T09:21:51.350Z,10.93
2022-08-27T09:24:23.453Z,12.88
2022-08-27T09:26:53.034Z,11.32
2022-08-27T09:29:28.702Z,12.82
2022-08-27T09:32:00.006Z,11.48
2022-08-27T09:34:30.699Z,11.65
2022-08-27T09:37:04.884Z,11.23
2022-08-27T09:39:39.014Z,11.23
2022-08-27T09:42:09.401Z,9.40
2022-08-27T09:44:53.533Z,11.23
2022-08-27T09:47:23.196Z,10.93
2022-08-27T09:50:07.023Z,10.85
2022-08-27T09:52:38.148Z,12.35
2022-08-27T09:57:38.663Z,11.25
2022-08-27T10:00:16.756Z,13.88
2022-08-27T10:02:52.999Z,11.32
2022-08-27T10:05:27.940Z,10.40
2022-08-27T10:07:59.890Z,11.15
2022-08-27T10:10:40.814Z,11.77
2022-08-27T10:13:12.618Z,11.13
2022-08-27T10:15:49.652Z,9.55
2022-08-27T10:18:22.757Z,9.93
2022-08-27T10:21:07.958Z,9.18
2022-08-27T10:23:40.456Z,10.25
2022-08-27T10:26:12.803Z,11.80
2022-08-27T10:28:47.284Z,10.77
2022-08-27T10:31:24.941Z,11.55
2022-08-27T10:34:12.360Z,11.52
2022-08-27T10:36:45.983Z,9.20
2022-08-27T10:39:21.084Z,12.30
2022-08-27T10:41:54.345Z,10.88
2022-08-27T10:44:40.629Z,10.93
2022-08-27T10:47:19.429Z,9.80
2022-08-27T10:49:51.856Z,10.68
2022-08-27T10:52:23.867Z,9.88
2022-08-27T10:54:56.101Z,10.55
2022-08-27T10:57:57.787Z,11.57
2022-08-27T11:00:33.535Z,9.60
2022-08-27T11:03:09.724Z,11.23
2022-08-27T11:05:45.255Z,10.57
2022-08-27T11:08:17.322Z,10.60
2022-08-27T11:10:48.962Z,10.80
2022-08-27T11:13:20.685Z,9.50
2022-08-27T11:15:52.170Z,9.40
2022-08-27T11:18:27.449Z,10.90
2022-08-27T11:20:59.868Z,9.23
2022-08-27T11:23:31.206Z,9.20
2022-08-27T11:26:02.204Z,9.48
2022-08-27T11:28:37.558Z,11.02
2022-08-27T11:31:10.520Z,10.38
2022-08-27T11:33:46.486Z,9.80
2022-08-27T11:36:35.086Z,10.52
2022-08-27T11:39:06.020Z,11.27
2022-08-27T11:41:51.658Z,12.13
2022-08-27T11:44:22.046Z,12.70
2022-08-27T11:46:52.800Z,12.80
2022-08-27T11:52:01.302Z,12.48
2022-08-27T11:54:32.277Z,12.90
2022-08-27T11:57:01.828Z,13.68
2022-08-27T11:59:35.295Z,12.75
2022-08-27T12:02:23.632Z,12.90
2022-08-27T12:04:57.750Z,13.70
2022-08-27T12:07:31.810Z,12.63
2022-08-27T12:10:10.111Z,14.63
2022-08-27T12:12:45.210Z,14.13
2022-08-27T12:15:18.292Z,13.13
2022-08-27T12:17:52.113Z,11.98
2022-08-27T12:20:26.461Z,12.00
2022-08-27T12:23:16.065Z,13.20
2022-08-27T12:25:45.718Z,12.45
2022-08-27T12:28:15.398Z,12.32
2022-08-27T12:30:52.057Z,13.85
2022-08-27T12:33:24.891Z,13.85
2022-08-27T12:35:57.371Z,12.60
2022-08-27T12:38:39.587Z,12.60
2022-08-27T12:41:11.740Z,11.13
2022-08-27T12:43:43.972Z,12.65
2022-08-27T12:46:16.267Z,14.30
2022-08-27T12:48:46.926Z,13.30
2022-08-27T12:51:25.948Z,11.73
2022-08-27T12:53:56.585Z,13.80
2022-08-27T12:56:35.294Z,14.05
2022-08-27T12:59:10.969Z,12.57
2022-08-27T13:01:51.721Z,14.25
2022-08-27T13:04:24.115Z,13.23
2022-08-27T13:06:56.145Z,14.90
2022-08-27T13:09:29.895Z,12.18
2022-08-27T13:11:59.666Z,12.82
2022-08-27T13:14:29.725Z,12.57
2022-08-27T13:17:00.596Z,12.32
2022-08-27T13:19:31.403Z,13.43
2022-08-27T13:22:05.235Z,14.57
2022-08-27T13:24:35.521Z,13.77
2022-08-27T13:27:05.596Z,12.23
2022-08-27T13:29:35.074Z,12.88
2022-08-27T13:32:04.868Z,12.02
2022-08-27T13:34:36.600Z,10.65
2022-08-27T13:37:09.615Z,12.13
2022-08-27T13:39:40.017Z,13.52
2022-08-27T13:42:10.341Z,11.55
2022-08-27T13:44:41.305Z,12.15
2022-08-27T13:47:17.740Z,13.10
2022-08-27T13:49:47.205Z,12.32
2022-08-27T13:52:26.459Z,12.35
2022-08-27T13:54:58.200Z,12.85
2022-08-27T13:57:33.851Z,12.35
2022-08-27T14:00:11.856Z,12.63
2022-08-27T14:02:42.427Z,12.40
2022-08-27T14:05:31.160Z,12.15
2022-08-27T14:08:04.446Z,12.13
2022-08-27T14:10:36.148Z,12.60
2022-08-27T14:13:08.443Z,10.68
2022-08-27T14:15:39.107Z,11.95
2022-08-27T14:20:38.540Z,10.68
2022-08-27T14:23:10.567Z,11.30
2022-08-27T14:25:40.004Z,9.50
2022-08-27T14:28:09.804Z,10.02
2022-08-27T14:30:39.747Z,11.83
2022-08-27T14:33:09.196Z,10.73
2022-08-27T14:35:38.763Z,9.75
2022-08-27T14:38:14.657Z,9.40
2022-08-27T14:40:44.604Z,9.07
2022-08-27T14:43:16.132Z,10.15
2022-08-27T14:45:45.980Z,9.98
2022-08-27T14:48:18.591Z,10.43
2022-08-27T14:50:48.758Z,9.77
2022-08-27T14:53:20.916Z,11.00
2022-08-27T14:55:52.008Z,9.38
2022-08-27T14:58:22.417Z,10.05
2022-08-27T15:00:52.158Z,11.15
2022-08-27T15:03:25.401Z,10.68
2022-08-27T15:05:56.056Z,9.82
2022-08-27T15:11:01.781Z,10.65
2022-08-27T15:13:31.252Z,11.35
2022-08-27T15:16:00.836Z,12.48
2022-08-27T15:18:30.330Z,12.63
2022-08-27T15:20:59.790Z,12.77
2022-08-27T15:23:31.818Z,11.13
2022-08-27T15:26:01.278Z,11.98
2022-08-27T15:28:30.737Z,10.68
2022-08-27T15:31:00.209Z,12.77
2022-08-27T15:33:29.667Z,11.35
2022-08-27T15:36:03.851Z,12.15
2022-08-27T15:38:36.303Z,11.45
2022-08-27T15:41:05.779Z,11.88
2022-08-27T15:43:35.244Z,13.48
2022-08-27T15:46:05.562Z,11.73
2022-08-27T15:48:35.141Z,9.70
2022-08-27T15:51:07.006Z,9.60
2022-08-27T15:53:39.153Z,10.23
2022-08-27T15:56:09.498Z,9.50
2022-08-27T15:58:39.485Z,10.05
2022-08-27T16:01:11.205Z,10.07
2022-08-27T16:03:40.794Z,9.70
2022-08-27T16:06:10.284Z,9.02
2022-08-27T16:08:42.357Z,9.18
2022-08-27T16:11:12.019Z,9.80
2022-08-27T16:13:41.679Z,9.55
2022-08-27T16:16:11.161Z,9.60
2022-08-27T16:18:40.780Z,10.50
2022-08-27T16:21:10.244Z,9.98
2022-08-27T16:23:42.314Z,8.65
2022-08-27T16:26:11.764Z,10.20
2022-08-27T16:28:41.196Z,8.40
2022-08-27T16:31:13.132Z,8.93
2022-08-27T16:33:43.257Z,9.48
2022-08-27T16:36:13.006Z,9.88
2022-08-27T16:38:45.060Z,9.13
2022-08-27T16:41:14.577Z,9.90
2022-08-27T16:43:44.027Z,8.90
2022-08-27T16:46:13.534Z,11.02
2022-08-27T16:49:01.256Z,8.82
2022-08-27T16:51:34.663Z,10.38
2022-08-27T16:54:08.240Z,11.30
2022-08-27T16:56:38.070Z,9.30
2022-08-27T16:59:07.889Z,9.17
2022-08-27T17:01:37.733Z,8.75
2022-08-27T17:04:11.263Z,8.97
2022-08-27T17:06:44.799Z,8.95
2022-08-27T17:11:47.737Z,9.43
2022-08-27T17:14:17.189Z,8.70
2022-08-27T17:16:46.654Z,8.18
2022-08-27T17:19:17.889Z,9.55
2022-08-27T17:21:47.380Z,9.45
2022-08-27T17:24:19.407Z,8.65
2022-08-27T17:26:48.852Z,8.77
2022-08-27T17:29:19.818Z,9.38
2022-08-27T17:31:49.299Z,7.50
2022-08-27T17:34:19.985Z,9.07
2022-08-27T17:36:49.581Z,8.93
2022-08-27T17:39:21.724Z,10.07
2022-08-27T17:41:52.390Z,10.40
2022-08-27T17:44:27.837Z,11.05
2022-08-27T17:46:59.305Z,10.02
2022-08-27T17:49:31.079Z,9.82
2022-08-27T17:52:02.299Z,8.27
2022-08-27T17:54:36.893Z,9.23
2022-08-27T17:57:07.867Z,9.30
2022-08-27T17:59:37.386Z,9.88
2022-08-27T18:02:06.901Z,8.60
2022-08-27T18:04:36.397Z,9.93
2022-08-27T18:07:06.027Z,10.10
2022-08-27T18:09:38.057Z,10.75
2022-08-27T18:12:07.872Z,10.00
2022-08-27T18:14:37.680Z,8.23
2022-08-27T18:17:07.237Z,9.18
2022-08-27T18:19:37.506Z,10.27
2022-08-27T18:22:07.361Z,9.65
2022-08-27T18:24:39.424Z,10.40
2022-08-27T18:27:08.888Z,8.43
2022-08-27T18:29:38.321Z,9.10
2022-08-27T18:32:07.918Z,9.88
2022-08-27T18:34:37.523Z,9.00
2022-08-27T18:37:10.333Z,11.60
2022-08-27T18:39:42.360Z,8.00
2022-08-27T18:42:11.970Z,11.18
2022-08-27T18:44:42.540Z,9.02
2022-08-27T18:47:11.998Z,10.13
2022-08-27T18:49:41.480Z,10.20
2022-08-27T18:52:13.523Z,8.55
2022-08-27T18:54:45.604Z,10.07
2022-08-27T18:57:15.084Z,8.80
2022-08-27T18:59:45.731Z,11.52
2022-08-27T19:02:19.026Z,9.32
2022-08-27T19:04:48.575Z,8.20
2022-08-27T19:07:18.037Z,9.98
2022-08-27T19:09:50.055Z,11.20
2022-08-27T19:12:19.508Z,10.55
2022-08-27T19:14:48.957Z,10.27
2022-08-27T19:17:27.536Z,9.65
2022-08-27T19:19:56.982Z,10.98
2022-08-27T19:22:26.437Z,8.15
2022-08-27T19:24:58.461Z,9.18
2022-08-27T19:27:28.629Z,11.98
2022-08-27T19:29:58.828Z,9.63
2022-08-27T19:32:28.341Z,9.13
2022-08-27T19:34:57.777Z,9.73
2022-08-27T19:37:29.391Z,10.05
2022-08-27T19:40:01.575Z,9.95
2022-08-27T19:42:31.583Z,10.18
2022-08-27T19:45:01.029Z,11.52
2022-08-27T19:47:30.526Z,11.38
2022-08-27T19:50:00.051Z,10.63
2022-08-27T19:52:29.523Z,9.98
2022-08-27T19:55:13.480Z,9.38
2022-08-27T19:57:43.689Z,9.02
2022-08-27T20:00:14.637Z,10.23
2022-08-27T20:05:18.653Z,10.73
2022-08-27T20:07:48.861Z,10.20
2022-08-27T20:10:21.649Z,10.10
2022-08-27T20:12:51.307Z,10.35
2022-08-27T20:15:21.447Z,11.45
2022-08-27T20:17:53.526Z,10.10
2022-08-27T20:20:24.463Z,9.60
2022-08-27T20:25:27.378Z,12.38
2022-08-27T20:27:56.855Z,10.60
2022-08-27T20:30:27.488Z,10.45
2022-08-27T20:32:57.258Z,8.75
2022-08-27T20:35:27.032Z,9.88
2022-08-27T20:37:57.231Z,8.77
2022-08-27T20:40:31.481Z,9.95
2022-08-27T20:43:01.191Z,10.75
2022-08-27T20:45:30.946Z,11.48
2022-08-27T20:50:33.840Z,8.98
2022-08-27T20:53:03.309Z,10.65
2022-08-27T20:55:35.332Z,12.00
2022-08-27T20:58:22.818Z,10.80
2022-08-27T21:00:54.615Z,9.88
2022-08-27T21:03:24.310Z,10.75
2022-08-27T21:05:53.865Z,9.98
2022-08-27T21:08:23.411Z,12.00
2022-08-27T21:10:56.835Z,11.27
2022-08-27T21:13:26.444Z,8.95
2022-08-27T21:15:56.586Z,12.52
2022-08-27T21:18:29.353Z,10.02
2022-08-27T21:20:59.740Z,9.43
2022-08-27T21:23:29.549Z,8.88
2022-08-27T21:26:02.488Z,11.25
2022-08-27T21:28:32.103Z,11.32
2022-08-27T21:31:01.591Z,12.02
2022-08-27T21:33:31.060Z,11.57
2022-08-27T21:36:00.507Z,12.25
2022-08-27T21:38:29.950Z,12.55
2022-08-27T21:41:02.392Z,10.40
2022-08-27T21:43:31.834Z,10.70
2022-08-27T21:46:01.364Z,10.73
2022-08-27T21:48:30.849Z,9.60
2022-08-27T21:51:00.321Z,10.95
2022-08-27T21:53:30.198Z,10.30
2022-08-27T21:56:02.236Z,10.63
2022-08-27T21:58:31.756Z,9.07
2022-08-27T22:01:02.773Z,10.13
2022-08-27T22:03:32.586Z,9.40
2022-08-27T22:06:02.078Z,9.00
2022-08-27T22:08:31.766Z,9.88
2022-08-27T22:11:04.125Z,9.05
2022-08-27T22:13:33.809Z,9.65
2022-08-27T22:16:03.395Z,9.20
2022-08-27T22:18:33.060Z,10.00
2022-08-27T22:21:02.606Z,10.35
2022-08-27T22:23:32.097Z,9.23
2022-08-27T22:26:04.399Z,11.48
2022-08-27T22:28:33.883Z,10.60
2022-08-27T22:31:03.377Z,11.65
2022-08-27T22:33:33.110Z,9.43
2022-08-27T22:36:02.602Z,9.52
2022-08-27T22:38:32.175Z,9.82
2022-08-27T22:41:04.628Z,8.33
2022-08-27T22:43:34.067Z,8.20
2022-08-27T22:46:03.506Z,9.40
2022-08-27T22:48:32.956Z,8.30
2022-08-27T22:51:02.420Z,8.65
2022-08-27T22:53:39.342Z,8.93
2022-08-27T22:56:11.872Z,11.52
2022-08-27T22:58:46.160Z,9.38
2022-08-27T23:01:15.933Z,10.57
2022-08-27T23:03:45.468Z,10.15
2022-08-27T23:06:14.989Z,8.38
2022-08-27T23:08:44.462Z,9.57
2022-08-27T23:11:16.696Z,8.73
2022-08-27T23:13:46.175Z,8.50
2022-08-27T23:16:16.869Z,8.23
2022-08-27T23:18:46.496Z,8.60
2022-08-27T23:21:16.006Z,9.75
2022-08-27T23:23:45.483Z,9.77
2022-08-27T23:26:31.178Z,10.63
2022-08-27T23:29:00.622Z,9.40
2022-08-27T23:31:30.152Z,8.25
2022-08-27T23:33:59.899Z,7.70
2022-08-27T23:36:29.363Z,8.52
2022-08-27T23:38:58.835Z,10.32
2022-08-27T23:41:30.880Z,9.55
2022-08-27T23:44:00.345Z,8.88
2022-08-27T23:46:30.622Z,10.07
2022-08-27T23:49:00.147Z,9.77
2022-08-27T23:51:29.613Z,9.80
2022-08-27T23:53:59.044Z,10.70
2022-08-27T23:56:31.420Z,9.40
2022-08-27T23:59:00.853Z,8.55
